sensor_id;sensor_type;location;lat;lon;timestamp;temperature;humidity
51902;DHT22;37929;53.218;6.548;2023-05-17T00:00:09;9.90;99.90
51902;DHT22;37929;53.218;6.548;2023-05-17T00:02:36;9.90;99.90
51902;DHT22;37929;53.218;6.548;2023-05-17T00:05:02;9.90;99.90
51902;DHT22;37929;53.218;6.548;2023-05-17T00:07:28;9.80;99.90
51902;DHT22;37929;53.218;6.548;2023-05-17T00:09:54;9.80;99.90
51902;DHT22;37929;53.218;6.548;2023-05-17T00:12:19;9.80;99.90
51902;DHT22;37929;53.218;6.548;2023-05-17T00:14:45;9.70;99.90
51902;DHT22;37929;53.218;6.548;2023-05-17T00:17:11;9.70;99.90
51902;DHT22;37929;53.218;6.548;2023-05-17T00:19:37;9.70;99.90
51902;DHT22;37929;53.218;6.548;2023-05-17T00:22:03;9.70;99.90
51902;DHT22;37929;53.218;6.548;2023-05-17T00:24:28;9.60;99.90
51902;DHT22;37929;53.218;6.548;2023-05-17T00:26:54;9.60;99.90
51902;DHT22;37929;53.218;6.548;2023-05-17T00:29:20;9.60;99.90
51902;DHT22;37929;53.218;6.548;2023-05-17T00:31:46;9.60;99.90
51902;DHT22;37929;53.218;6.548;2023-05-17T00:34:12;9.60;99.90
51902;DHT22;37929;53.218;6.548;2023-05-17T00:36:37;9.60;99.90
51902;DHT22;37929;53.218;6.548;2023-05-17T00:39:03;9.60;99.90
51902;DHT22;37929;53.218;6.548;2023-05-17T00:41:29;9.60;99.90
51902;DHT22;37929;53.218;6.548;2023-05-17T00:43:57;9.60;99.90
51902;DHT22;37929;53.218;6.548;2023-05-17T00:46:23;9.60;99.90
51902;DHT22;37929;53.218;6.548;2023-05-17T00:48:49;9.60;99.90
51902;DHT22;37929;53.218;6.548;2023-05-17T00:51:15;9.60;99.90
51902;DHT22;37929;53.218;6.548;2023-05-17T00:53:43;9.60;99.90
51902;DHT22;37929;53.218;6.548;2023-05-17T00:56:09;9.70;99.90
51902;DHT22;37929;53.218;6.548;2023-05-17T00:58:36;9.60;99.90
51902;DHT22;37929;53.218;6.548;2023-05-17T01:01:02;9.60;99.90
51902;DHT22;37929;53.218;6.548;2023-05-17T01:03:28;9.60;99.90
51902;DHT22;37929;53.218;6.548;2023-05-17T01:05:54;10.10;99.90
51902;DHT22;37929;53.218;6.548;2023-05-17T01:08:22;9.50;99.90
51902;DHT22;37929;53.218;6.548;2023-05-17T01:13:47;9.60;99.90
51902;DHT22;37929;53.218;6.548;2023-05-17T01:16:38;9.50;99.90
51902;DHT22;37929;53.218;6.548;2023-05-17T01:22:57;9.50;99.90
51902;DHT22;37929;53.218;6.548;2023-05-17T01:25:13;9.50;99.90
51902;DHT22;37929;53.218;6.548;2023-05-17T01:27:44;9.40;99.90
51902;DHT22;37929;53.218;6.548;2023-05-17T01:30:13;9.40;99.90
51902;DHT22;37929;53.218;6.548;2023-05-17T01:32:43;9.40;99.90
51902;DHT22;37929;53.218;6.548;2023-05-17T01:35:10;9.40;99.90
51902;DHT22;37929;53.218;6.548;2023-05-17T01:37:37;9.40;99.90
51902;DHT22;37929;53.218;6.548;2023-05-17T01:40:04;9.40;99.90
51902;DHT22;37929;53.218;6.548;2023-05-17T01:42:32;9.40;99.90
51902;DHT22;37929;53.218;6.548;2023-05-17T01:45:20;9.40;99.90
51902;DHT22;37929;53.218;6.548;2023-05-17T01:50:28;9.40;99.90
51902;DHT22;37929;53.218;6.548;2023-05-17T01:53:02;9.40;99.90
51902;DHT22;37929;53.218;6.548;2023-05-17T01:56:01;9.40;99.90
51902;DHT22;37929;53.218;6.548;2023-05-17T01:58:29;9.40;99.90
51902;DHT22;37929;53.218;6.548;2023-05-17T02:00:57;9.40;99.90
51902;DHT22;37929;53.218;6.548;2023-05-17T02:03:23;9.40;99.90
51902;DHT22;37929;53.218;6.548;2023-05-17T02:05:49;9.50;99.90
51902;DHT22;37929;53.218;6.548;2023-05-17T02:08:14;9.40;99.90
51902;DHT22;37929;53.218;6.548;2023-05-17T02:10:40;9.40;99.90
51902;DHT22;37929;53.218;6.548;2023-05-17T02:13:06;9.40;99.90
51902;DHT22;37929;53.218;6.548;2023-05-17T02:15:32;9.30;99.90
51902;DHT22;37929;53.218;6.548;2023-05-17T02:17:58;9.30;99.90
51902;DHT22;37929;53.218;6.548;2023-05-17T02:20:23;9.30;99.90
51902;DHT22;37929;53.218;6.548;2023-05-17T02:22:49;9.30;99.90
51902;DHT22;37929;53.218;6.548;2023-05-17T02:25:15;9.30;99.90
51902;DHT22;37929;53.218;6.548;2023-05-17T02:27:40;9.30;99.90
51902;DHT22;37929;53.218;6.548;2023-05-17T02:30:06;9.40;99.90
51902;DHT22;37929;53.218;6.548;2023-05-17T02:32:36;9.40;99.90
51902;DHT22;37929;53.218;6.548;2023-05-17T02:35:03;9.40;99.90
51902;DHT22;37929;53.218;6.548;2023-05-17T02:37:29;9.40;99.90
51902;DHT22;37929;53.218;6.548;2023-05-17T02:39:55;9.40;99.90
51902;DHT22;37929;53.218;6.548;2023-05-17T02:42:20;9.40;99.90
51902;DHT22;37929;53.218;6.548;2023-05-17T02:44:49;9.40;99.90
51902;DHT22;37929;53.218;6.548;2023-05-17T02:47:17;9.40;99.90
51902;DHT22;37929;53.218;6.548;2023-05-17T02:49:45;9.40;99.90
51902;DHT22;37929;53.218;6.548;2023-05-17T02:52:13;9.40;99.90
51902;DHT22;37929;53.218;6.548;2023-05-17T02:54:39;9.40;99.90
51902;DHT22;37929;53.218;6.548;2023-05-17T02:57:06;9.40;99.90
51902;DHT22;37929;53.218;6.548;2023-05-17T02:59:32;9.40;99.90
51902;DHT22;37929;53.218;6.548;2023-05-17T03:01:58;9.40;99.90
51902;DHT22;37929;53.218;6.548;2023-05-17T03:04:23;9.40;99.90
51902;DHT22;37929;53.218;6.548;2023-05-17T03:06:49;9.40;99.90
51902;DHT22;37929;53.218;6.548;2023-05-17T03:09:18;9.30;99.90
51902;DHT22;37929;53.218;6.548;2023-05-17T03:11:44;9.30;99.90
51902;DHT22;37929;53.218;6.548;2023-05-17T03:14:10;9.30;99.90
51902;DHT22;37929;53.218;6.548;2023-05-17T03:16:36;9.30;99.90
51902;DHT22;37929;53.218;6.548;2023-05-17T03:19:02;9.30;99.90
51902;DHT22;37929;53.218;6.548;2023-05-17T03:21:27;9.30;99.90
51902;DHT22;37929;53.218;6.548;2023-05-17T03:23:53;9.20;99.90
51902;DHT22;37929;53.218;6.548;2023-05-17T03:26:19;9.20;99.90
51902;DHT22;37929;53.218;6.548;2023-05-17T03:28:45;9.20;99.90
51902;DHT22;37929;53.218;6.548;2023-05-17T03:31:11;9.20;99.90
51902;DHT22;37929;53.218;6.548;2023-05-17T03:33:37;9.10;99.90
51902;DHT22;37929;53.218;6.548;2023-05-17T03:36:03;9.10;99.90
51902;DHT22;37929;53.218;6.548;2023-05-17T03:38:28;9.10;99.90
51902;DHT22;37929;53.218;6.548;2023-05-17T03:40:55;9.10;99.90
51902;DHT22;37929;53.218;6.548;2023-05-17T03:43:21;9.10;99.90
51902;DHT22;37929;53.218;6.548;2023-05-17T03:45:46;9.10;99.90
51902;DHT22;37929;53.218;6.548;2023-05-17T03:48:12;9.10;99.90
51902;DHT22;37929;53.218;6.548;2023-05-17T03:50:38;9.10;99.90
51902;DHT22;37929;53.218;6.548;2023-05-17T03:53:06;9.10;99.90
51902;DHT22;37929;53.218;6.548;2023-05-17T03:55:31;9.20;99.90
51902;DHT22;37929;53.218;6.548;2023-05-17T03:57:57;9.20;99.90
51902;DHT22;37929;53.218;6.548;2023-05-17T04:00:23;9.10;99.90
51902;DHT22;37929;53.218;6.548;2023-05-17T04:02:50;9.10;99.90
51902;DHT22;37929;53.218;6.548;2023-05-17T04:05:17;9.10;99.90
51902;DHT22;37929;53.218;6.548;2023-05-17T04:07:43;9.10;99.90
51902;DHT22;37929;53.218;6.548;2023-05-17T04:10:09;9.10;99.90
51902;DHT22;37929;53.218;6.548;2023-05-17T04:12:36;9.30;99.90
51902;DHT22;37929;53.218;6.548;2023-05-17T04:15:02;9.10;99.90
51902;DHT22;37929;53.218;6.548;2023-05-17T04:17:28;9.10;99.90
51902;DHT22;37929;53.218;6.548;2023-05-17T04:19:55;9.00;99.90
51902;DHT22;37929;53.218;6.548;2023-05-17T04:22:21;9.00;99.90
51902;DHT22;37929;53.218;6.548;2023-05-17T04:24:47;9.00;99.90
51902;DHT22;37929;53.218;6.548;2023-05-17T04:27:13;9.00;99.90
51902;DHT22;37929;53.218;6.548;2023-05-17T04:29:38;9.10;99.90
51902;DHT22;37929;53.218;6.548;2023-05-17T04:32:06;9.00;99.90
51902;DHT22;37929;53.218;6.548;2023-05-17T04:34:32;9.10;99.90
51902;DHT22;37929;53.218;6.548;2023-05-17T04:36:58;9.00;99.90
51902;DHT22;37929;53.218;6.548;2023-05-17T04:39:24;9.10;99.90
51902;DHT22;37929;53.218;6.548;2023-05-17T04:41:50;9.10;99.90
51902;DHT22;37929;53.218;6.548;2023-05-17T04:44:16;9.10;99.90
51902;DHT22;37929;53.218;6.548;2023-05-17T04:46:42;9.10;99.90
51902;DHT22;37929;53.218;6.548;2023-05-17T04:49:09;9.10;99.90
51902;DHT22;37929;53.218;6.548;2023-05-17T04:51:35;9.10;99.90
51902;DHT22;37929;53.218;6.548;2023-05-17T04:54:01;9.20;99.90
51902;DHT22;37929;53.218;6.548;2023-05-17T04:56:27;9.10;99.90
51902;DHT22;37929;53.218;6.548;2023-05-17T04:58:53;9.20;99.90
51902;DHT22;37929;53.218;6.548;2023-05-17T05:01:19;9.10;99.90
51902;DHT22;37929;53.218;6.548;2023-05-17T05:03:45;9.10;99.90
51902;DHT22;37929;53.218;6.548;2023-05-17T05:06:11;9.10;99.90
51902;DHT22;37929;53.218;6.548;2023-05-17T05:08:36;9.10;99.90
51902;DHT22;37929;53.218;6.548;2023-05-17T05:11:02;9.00;99.90
51902;DHT22;37929;53.218;6.548;2023-05-17T05:13:28;9.00;99.90
51902;DHT22;37929;53.218;6.548;2023-05-17T05:15:54;9.10;99.90
51902;DHT22;37929;53.218;6.548;2023-05-17T05:18:20;9.00;99.90
51902;DHT22;37929;53.218;6.548;2023-05-17T05:20:49;9.10;99.90
51902;DHT22;37929;53.218;6.548;2023-05-17T05:23:15;9.10;99.90
51902;DHT22;37929;53.218;6.548;2023-05-17T05:25:43;9.10;99.90
51902;DHT22;37929;53.218;6.548;2023-05-17T05:28:08;9.10;99.90
51902;DHT22;37929;53.218;6.548;2023-05-17T05:30:35;9.10;99.90
51902;DHT22;37929;53.218;6.548;2023-05-17T05:33:01;9.20;99.90
51902;DHT22;37929;53.218;6.548;2023-05-17T05:35:27;9.20;99.90
51902;DHT22;37929;53.218;6.548;2023-05-17T05:37:56;9.20;99.90
51902;DHT22;37929;53.218;6.548;2023-05-17T05:40:25;9.20;99.90
51902;DHT22;37929;53.218;6.548;2023-05-17T05:42:51;9.20;99.90
51902;DHT22;37929;53.218;6.548;2023-05-17T05:45:17;9.20;99.90
51902;DHT22;37929;53.218;6.548;2023-05-17T05:47:43;9.20;99.90
51902;DHT22;37929;53.218;6.548;2023-05-17T05:50:09;9.20;99.90
51902;DHT22;37929;53.218;6.548;2023-05-17T05:52:36;9.20;99.90
51902;DHT22;37929;53.218;6.548;2023-05-17T05:55:04;9.30;99.90
51902;DHT22;37929;53.218;6.548;2023-05-17T05:57:30;9.30;99.90
51902;DHT22;37929;53.218;6.548;2023-05-17T05:59:56;9.30;99.90
51902;DHT22;37929;53.218;6.548;2023-05-17T06:02:22;9.40;99.90
51902;DHT22;37929;53.218;6.548;2023-05-17T06:04:48;9.40;99.90
51902;DHT22;37929;53.218;6.548;2023-05-17T06:07:14;9.50;99.90
51902;DHT22;37929;53.218;6.548;2023-05-17T06:09:40;9.40;99.90
51902;DHT22;37929;53.218;6.548;2023-05-17T06:12:06;9.40;99.90
51902;DHT22;37929;53.218;6.548;2023-05-17T06:14:32;9.40;99.90
51902;DHT22;37929;53.218;6.548;2023-05-17T06:16:58;9.40;99.90
51902;DHT22;37929;53.218;6.548;2023-05-17T06:19:24;9.40;99.90
51902;DHT22;37929;53.218;6.548;2023-05-17T06:21:50;9.40;99.90
51902;DHT22;37929;53.218;6.548;2023-05-17T06:24:16;9.50;99.90
51902;DHT22;37929;53.218;6.548;2023-05-17T06:26:42;10.10;99.90
51902;DHT22;37929;53.218;6.548;2023-05-17T06:29:09;9.50;99.90
51902;DHT22;37929;53.218;6.548;2023-05-17T06:31:34;9.50;99.90
51902;DHT22;37929;53.218;6.548;2023-05-17T06:34:00;9.50;99.90
51902;DHT22;37929;53.218;6.548;2023-05-17T06:36:29;9.40;99.90
51902;DHT22;37929;53.218;6.548;2023-05-17T06:38:55;9.50;99.90
51902;DHT22;37929;53.218;6.548;2023-05-17T06:41:21;9.50;99.90
51902;DHT22;37929;53.218;6.548;2023-05-17T06:43:46;9.50;99.90
51902;DHT22;37929;53.218;6.548;2023-05-17T06:46:15;9.50;99.90
51902;DHT22;37929;53.218;6.548;2023-05-17T06:48:41;9.90;99.90
51902;DHT22;37929;53.218;6.548;2023-05-17T06:51:06;9.60;99.90
51902;DHT22;37929;53.218;6.548;2023-05-17T06:53:32;9.60;99.90
51902;DHT22;37929;53.218;6.548;2023-05-17T06:55:58;9.50;99.90
51902;DHT22;37929;53.218;6.548;2023-05-17T06:58:24;9.60;99.90
51902;DHT22;37929;53.218;6.548;2023-05-17T07:01:06;9.60;99.90
51902;DHT22;37929;53.218;6.548;2023-05-17T07:03:38;9.60;99.90
51902;DHT22;37929;53.218;6.548;2023-05-17T07:06:04;9.60;99.90
51902;DHT22;37929;53.218;6.548;2023-05-17T07:08:30;9.60;99.90
51902;DHT22;37929;53.218;6.548;2023-05-17T07:10:56;9.60;99.90
51902;DHT22;37929;53.218;6.548;2023-05-17T07:13:21;9.60;99.90
51902;DHT22;37929;53.218;6.548;2023-05-17T07:15:47;9.60;99.90
51902;DHT22;37929;53.218;6.548;2023-05-17T07:18:13;9.70;99.90
51902;DHT22;37929;53.218;6.548;2023-05-17T07:20:39;9.70;99.90
51902;DHT22;37929;53.218;6.548;2023-05-17T07:23:04;9.70;99.90
51902;DHT22;37929;53.218;6.548;2023-05-17T07:25:33;9.70;99.90
51902;DHT22;37929;53.218;6.548;2023-05-17T07:28:03;9.80;99.90
51902;DHT22;37929;53.218;6.548;2023-05-17T07:30:29;9.80;99.90
51902;DHT22;37929;53.218;6.548;2023-05-17T07:32:55;9.90;99.90
51902;DHT22;37929;53.218;6.548;2023-05-17T07:35:21;9.90;99.90
51902;DHT22;37929;53.218;6.548;2023-05-17T07:37:47;10.00;99.90
51902;DHT22;37929;53.218;6.548;2023-05-17T07:40:13;9.90;99.90
51902;DHT22;37929;53.218;6.548;2023-05-17T07:42:39;10.00;99.90
51902;DHT22;37929;53.218;6.548;2023-05-17T07:45:06;10.00;99.90
51902;DHT22;37929;53.218;6.548;2023-05-17T07:47:34;10.10;99.90
51902;DHT22;37929;53.218;6.548;2023-05-17T07:50:01;10.10;99.90
51902;DHT22;37929;53.218;6.548;2023-05-17T07:52:28;10.10;99.90
51902;DHT22;37929;53.218;6.548;2023-05-17T07:54:58;10.10;99.90
51902;DHT22;37929;53.218;6.548;2023-05-17T07:57:27;10.10;99.90
51902;DHT22;37929;53.218;6.548;2023-05-17T07:59:53;10.10;99.90
51902;DHT22;37929;53.218;6.548;2023-05-17T08:02:20;10.00;99.90
51902;DHT22;37929;53.218;6.548;2023-05-17T08:04:50;10.00;99.90
51902;DHT22;37929;53.218;6.548;2023-05-17T08:07:15;10.00;99.90
51902;DHT22;37929;53.218;6.548;2023-05-17T08:09:42;10.00;99.90
51902;DHT22;37929;53.218;6.548;2023-05-17T08:12:10;10.00;99.90
51902;DHT22;37929;53.218;6.548;2023-05-17T08:14:38;10.00;99.90
51902;DHT22;37929;53.218;6.548;2023-05-17T08:17:04;10.10;99.90
51902;DHT22;37929;53.218;6.548;2023-05-17T08:19:33;10.00;99.90
51902;DHT22;37929;53.218;6.548;2023-05-17T08:22:00;10.10;99.90
51902;DHT22;37929;53.218;6.548;2023-05-17T08:24:27;10.10;99.90
51902;DHT22;37929;53.218;6.548;2023-05-17T08:26:53;10.30;99.90
51902;DHT22;37929;53.218;6.548;2023-05-17T08:29:18;10.30;99.90
51902;DHT22;37929;53.218;6.548;2023-05-17T08:31:44;10.30;99.90
51902;DHT22;37929;53.218;6.548;2023-05-17T08:34:10;10.40;99.90
51902;DHT22;37929;53.218;6.548;2023-05-17T08:36:39;10.40;99.90
51902;DHT22;37929;53.218;6.548;2023-05-17T08:39:05;10.40;99.90
51902;DHT22;37929;53.218;6.548;2023-05-17T08:41:32;10.60;99.90
51902;DHT22;37929;53.218;6.548;2023-05-17T08:43:58;10.70;99.90
51902;DHT22;37929;53.218;6.548;2023-05-17T08:46:25;10.70;99.90
51902;DHT22;37929;53.218;6.548;2023-05-17T08:48:53;10.80;99.90
51902;DHT22;37929;53.218;6.548;2023-05-17T08:51:24;10.80;99.90
51902;DHT22;37929;53.218;6.548;2023-05-17T08:53:50;10.80;99.90
51902;DHT22;37929;53.218;6.548;2023-05-17T08:56:17;10.80;99.90
51902;DHT22;37929;53.218;6.548;2023-05-17T08:58:46;10.80;99.90
51902;DHT22;37929;53.218;6.548;2023-05-17T09:01:14;10.80;99.90
51902;DHT22;37929;53.218;6.548;2023-05-17T09:03:42;10.90;99.90
51902;DHT22;37929;53.218;6.548;2023-05-17T09:06:11;10.90;99.90
51902;DHT22;37929;53.218;6.548;2023-05-17T09:08:39;10.90;99.90
51902;DHT22;37929;53.218;6.548;2023-05-17T09:11:06;10.90;99.90
51902;DHT22;37929;53.218;6.548;2023-05-17T09:13:31;10.90;99.90
51902;DHT22;37929;53.218;6.548;2023-05-17T09:15:57;10.90;99.90
51902;DHT22;37929;53.218;6.548;2023-05-17T09:18:30;10.90;99.90
51902;DHT22;37929;53.218;6.548;2023-05-17T09:21:01;11.10;99.90
51902;DHT22;37929;53.218;6.548;2023-05-17T09:23:30;11.10;99.90
51902;DHT22;37929;53.218;6.548;2023-05-17T09:26:03;11.20;99.90
51902;DHT22;37929;53.218;6.548;2023-05-17T09:28:37;11.20;99.90
51902;DHT22;37929;53.218;6.548;2023-05-17T09:31:07;11.20;99.90
51902;DHT22;37929;53.218;6.548;2023-05-17T09:33:51;11.20;99.90
51902;DHT22;37929;53.218;6.548;2023-05-17T09:36:21;11.20;99.90
51902;DHT22;37929;53.218;6.548;2023-05-17T09:38:59;11.20;99.90
51902;DHT22;37929;53.218;6.548;2023-05-17T09:41:27;11.20;99.90
51902;DHT22;37929;53.218;6.548;2023-05-17T09:44:00;11.20;99.90
51902;DHT22;37929;53.218;6.548;2023-05-17T09:46:27;11.20;99.90
51902;DHT22;37929;53.218;6.548;2023-05-17T09:48:54;11.20;99.90
51902;DHT22;37929;53.218;6.548;2023-05-17T09:51:41;11.20;99.90
51902;DHT22;37929;53.218;6.548;2023-05-17T09:54:07;11.30;99.90
51902;DHT22;37929;53.218;6.548;2023-05-17T09:56:34;11.30;99.90
51902;DHT22;37929;53.218;6.548;2023-05-17T09:59:01;11.30;99.90
51902;DHT22;37929;53.218;6.548;2023-05-17T10:01:28;11.30;99.90
51902;DHT22;37929;53.218;6.548;2023-05-17T10:03:58;11.40;99.90
51902;DHT22;37929;53.218;6.548;2023-05-17T10:06:28;11.40;99.90
51902;DHT22;37929;53.218;6.548;2023-05-17T10:09:01;11.30;99.90
51902;DHT22;37929;53.218;6.548;2023-05-17T10:11:32;11.30;99.90
51902;DHT22;37929;53.218;6.548;2023-05-17T10:14:01;11.60;99.90
51902;DHT22;37929;53.218;6.548;2023-05-17T10:16:33;11.40;99.90
51902;DHT22;37929;53.218;6.548;2023-05-17T10:19:00;11.50;99.90
51902;DHT22;37929;53.218;6.548;2023-05-17T10:21:27;11.50;99.90
51902;DHT22;37929;53.218;6.548;2023-05-17T10:23:54;11.60;99.90
51902;DHT22;37929;53.218;6.548;2023-05-17T10:26:21;11.60;99.90
51902;DHT22;37929;53.218;6.548;2023-05-17T10:28:47;11.60;99.90
51902;DHT22;37929;53.218;6.548;2023-05-17T10:31:17;11.60;99.90
51902;DHT22;37929;53.218;6.548;2023-05-17T10:33:46;11.60;99.90
51902;DHT22;37929;53.218;6.548;2023-05-17T10:36:16;11.50;99.90
51902;DHT22;37929;53.218;6.548;2023-05-17T10:38:42;11.50;99.90
51902;DHT22;37929;53.218;6.548;2023-05-17T10:41:12;11.60;99.90
51902;DHT22;37929;53.218;6.548;2023-05-17T10:43:40;11.60;99.90
51902;DHT22;37929;53.218;6.548;2023-05-17T10:46:15;11.60;99.90
51902;DHT22;37929;53.218;6.548;2023-05-17T10:48:42;11.60;99.90
51902;DHT22;37929;53.218;6.548;2023-05-17T10:51:10;11.60;99.90
51902;DHT22;37929;53.218;6.548;2023-05-17T10:56:30;11.60;99.90
51902;DHT22;37929;53.218;6.548;2023-05-17T10:59:19;12.00;99.90
51902;DHT22;37929;53.218;6.548;2023-05-17T11:01:51;11.80;99.90
51902;DHT22;37929;53.218;6.548;2023-05-17T11:04:26;11.90;99.90
51902;DHT22;37929;53.218;6.548;2023-05-17T11:09:46;11.90;99.90
51902;DHT22;37929;53.218;6.548;2023-05-17T11:15:07;11.80;99.90
51902;DHT22;37929;53.218;6.548;2023-05-17T11:17:47;11.80;99.90
51902;DHT22;37929;53.218;6.548;2023-05-17T11:23:05;11.80;99.90
51902;DHT22;37929;53.218;6.548;2023-05-17T11:25:36;11.90;99.90
51902;DHT22;37929;53.218;6.548;2023-05-17T11:28:07;11.90;99.90
51902;DHT22;37929;53.218;6.548;2023-05-17T11:30:40;11.90;99.90
51902;DHT22;37929;53.218;6.548;2023-05-17T11:33:07;12.00;99.90
51902;DHT22;37929;53.218;6.548;2023-05-17T11:35:34;12.20;99.90
51902;DHT22;37929;53.218;6.548;2023-05-17T11:38:21;12.30;99.90
51902;DHT22;37929;53.218;6.548;2023-05-17T11:40:47;12.50;99.90
51902;DHT22;37929;53.218;6.548;2023-05-17T11:43:17;12.60;99.90
51902;DHT22;37929;53.218;6.548;2023-05-17T11:45:54;12.70;99.90
51902;DHT22;37929;53.218;6.548;2023-05-17T11:48:23;12.80;99.90
51902;DHT22;37929;53.218;6.548;2023-05-17T11:50:50;12.80;99.90
51902;DHT22;37929;53.218;6.548;2023-05-17T11:53:16;12.70;99.90
51902;DHT22;37929;53.218;6.548;2023-05-17T11:55:44;12.60;99.90
51902;DHT22;37929;53.218;6.548;2023-05-17T11:58:14;12.60;99.90
51902;DHT22;37929;53.218;6.548;2023-05-17T12:00:41;12.80;99.90
51902;DHT22;37929;53.218;6.548;2023-05-17T12:03:24;13.00;99.90
51902;DHT22;37929;53.218;6.548;2023-05-17T12:06:15;13.10;99.90
51902;DHT22;37929;53.218;6.548;2023-05-17T12:08:45;13.00;99.90
51902;DHT22;37929;53.218;6.548;2023-05-17T12:11:13;13.00;99.90
51902;DHT22;37929;53.218;6.548;2023-05-17T12:13:40;12.90;99.90
51902;DHT22;37929;53.218;6.548;2023-05-17T12:16:15;13.00;99.90
51902;DHT22;37929;53.218;6.548;2023-05-17T12:18:49;13.00;99.90
51902;DHT22;37929;53.218;6.548;2023-05-17T12:21:16;13.10;99.90
51902;DHT22;37929;53.218;6.548;2023-05-17T12:23:49;13.10;99.90
51902;DHT22;37929;53.218;6.548;2023-05-17T12:26:22;13.00;99.90
51902;DHT22;37929;53.218;6.548;2023-05-17T12:28:55;13.00;99.90
51902;DHT22;37929;53.218;6.548;2023-05-17T12:31:33;13.10;99.90
51902;DHT22;37929;53.218;6.548;2023-05-17T12:34:01;13.20;99.90
51902;DHT22;37929;53.218;6.548;2023-05-17T12:36:33;13.10;99.90
51902;DHT22;37929;53.218;6.548;2023-05-17T12:39:00;13.10;99.90
51902;DHT22;37929;53.218;6.548;2023-05-17T12:41:26;13.10;99.90
51902;DHT22;37929;53.218;6.548;2023-05-17T12:43:56;13.00;99.90
51902;DHT22;37929;53.218;6.548;2023-05-17T12:46:23;13.00;99.90
51902;DHT22;37929;53.218;6.548;2023-05-17T12:48:50;13.00;99.90
51902;DHT22;37929;53.218;6.548;2023-05-17T12:51:18;13.10;99.90
51902;DHT22;37929;53.218;6.548;2023-05-17T12:53:51;13.10;99.90
51902;DHT22;37929;53.218;6.548;2023-05-17T12:56:19;13.10;99.90
51902;DHT22;37929;53.218;6.548;2023-05-17T12:59:06;13.10;99.90
51902;DHT22;37929;53.218;6.548;2023-05-17T13:01:41;13.00;99.90
51902;DHT22;37929;53.218;6.548;2023-05-17T13:04:07;13.10;99.90
51902;DHT22;37929;53.218;6.548;2023-05-17T13:06:55;13.10;99.90
51902;DHT22;37929;53.218;6.548;2023-05-17T13:09:21;13.10;99.90
51902;DHT22;37929;53.218;6.548;2023-05-17T13:11:57;13.00;99.90
51902;DHT22;37929;53.218;6.548;2023-05-17T13:17:00;13.00;99.90
51902;DHT22;37929;53.218;6.548;2023-05-17T13:19:25;13.00;99.90
51902;DHT22;37929;53.218;6.548;2023-05-17T13:21:51;13.00;99.90
51902;DHT22;37929;53.218;6.548;2023-05-17T13:24:17;13.00;99.90
51902;DHT22;37929;53.218;6.548;2023-05-17T13:26:42;13.00;99.90
51902;DHT22;37929;53.218;6.548;2023-05-17T13:29:09;12.90;99.90
51902;DHT22;37929;53.218;6.548;2023-05-17T13:31:34;12.80;99.90
51902;DHT22;37929;53.218;6.548;2023-05-17T13:34:00;12.80;99.90
51902;DHT22;37929;53.218;6.548;2023-05-17T13:36:26;12.80;99.90
51902;DHT22;37929;53.218;6.548;2023-05-17T13:38:52;12.90;99.90
51902;DHT22;37929;53.218;6.548;2023-05-17T13:41:17;12.80;99.90
51902;DHT22;37929;53.218;6.548;2023-05-17T13:43:43;12.80;99.90
51902;DHT22;37929;53.218;6.548;2023-05-17T13:46:09;12.80;99.90
51902;DHT22;37929;53.218;6.548;2023-05-17T13:48:35;12.80;99.90
51902;DHT22;37929;53.218;6.548;2023-05-17T13:51:01;12.80;99.90
51902;DHT22;37929;53.218;6.548;2023-05-17T13:53:33;12.70;99.90
51902;DHT22;37929;53.218;6.548;2023-05-17T13:56:09;12.60;99.90
51902;DHT22;37929;53.218;6.548;2023-05-17T13:58:35;12.60;99.90
51902;DHT22;37929;53.218;6.548;2023-05-17T14:01:00;12.60;99.90
51902;DHT22;37929;53.218;6.548;2023-05-17T14:03:26;12.60;99.90
51902;DHT22;37929;53.218;6.548;2023-05-17T14:05:52;12.60;99.90
51902;DHT22;37929;53.218;6.548;2023-05-17T14:08:18;12.60;99.90
51902;DHT22;37929;53.218;6.548;2023-05-17T14:10:44;12.50;99.90
51902;DHT22;37929;53.218;6.548;2023-05-17T14:13:10;12.50;99.90
51902;DHT22;37929;53.218;6.548;2023-05-17T14:15:38;12.50;99.90
51902;DHT22;37929;53.218;6.548;2023-05-17T14:18:05;12.40;99.90
51902;DHT22;37929;53.218;6.548;2023-05-17T14:20:31;12.40;99.90
51902;DHT22;37929;53.218;6.548;2023-05-17T14:22:57;12.30;99.90
51902;DHT22;37929;53.218;6.548;2023-05-17T14:25:23;12.40;99.90
51902;DHT22;37929;53.218;6.548;2023-05-17T14:27:49;12.30;99.90
51902;DHT22;37929;53.218;6.548;2023-05-17T14:30:15;12.40;99.90
51902;DHT22;37929;53.218;6.548;2023-05-17T14:32:41;12.40;99.90
51902;DHT22;37929;53.218;6.548;2023-05-17T14:35:07;12.40;99.90
51902;DHT22;37929;53.218;6.548;2023-05-17T14:37:33;12.40;99.90
51902;DHT22;37929;53.218;6.548;2023-05-17T14:40:03;12.50;99.90
51902;DHT22;37929;53.218;6.548;2023-05-17T14:42:29;12.50;99.90
51902;DHT22;37929;53.218;6.548;2023-05-17T14:44:56;12.50;99.90
51902;DHT22;37929;53.218;6.548;2023-05-17T14:47:22;12.50;99.90
51902;DHT22;37929;53.218;6.548;2023-05-17T14:49:47;12.60;99.90
51902;DHT22;37929;53.218;6.548;2023-05-17T14:52:13;12.60;99.90
51902;DHT22;37929;53.218;6.548;2023-05-17T14:54:40;12.60;99.90
51902;DHT22;37929;53.218;6.548;2023-05-17T14:57:06;12.60;99.90
51902;DHT22;37929;53.218;6.548;2023-05-17T14:59:35;12.60;99.90
51902;DHT22;37929;53.218;6.548;2023-05-17T15:02:01;12.60;99.90
51902;DHT22;37929;53.218;6.548;2023-05-17T15:04:26;12.60;99.90
51902;DHT22;37929;53.218;6.548;2023-05-17T15:06:52;12.60;99.90
51902;DHT22;37929;53.218;6.548;2023-05-17T15:09:18;12.70;99.90
51902;DHT22;37929;53.218;6.548;2023-05-17T15:11:56;12.70;99.90
51902;DHT22;37929;53.218;6.548;2023-05-17T15:14:22;12.70;99.90
51902;DHT22;37929;53.218;6.548;2023-05-17T15:16:50;12.60;99.90
51902;DHT22;37929;53.218;6.548;2023-05-17T15:19:16;12.50;99.90
51902;DHT22;37929;53.218;6.548;2023-05-17T15:21:43;12.50;99.90
51902;DHT22;37929;53.218;6.548;2023-05-17T15:24:09;12.40;99.90
51902;DHT22;37929;53.218;6.548;2023-05-17T15:26:35;12.30;99.90
51902;DHT22;37929;53.218;6.548;2023-05-17T15:29:01;12.20;99.90
51902;DHT22;37929;53.218;6.548;2023-05-17T15:31:26;12.20;99.90
51902;DHT22;37929;53.218;6.548;2023-05-17T15:33:53;12.20;99.90
51902;DHT22;37929;53.218;6.548;2023-05-17T15:36:20;12.20;99.90
51902;DHT22;37929;53.218;6.548;2023-05-17T15:38:45;12.20;99.90
51902;DHT22;37929;53.218;6.548;2023-05-17T15:41:14;12.20;99.90
51902;DHT22;37929;53.218;6.548;2023-05-17T15:43:41;12.20;99.90
51902;DHT22;37929;53.218;6.548;2023-05-17T15:46:07;12.20;99.90
51902;DHT22;37929;53.218;6.548;2023-05-17T15:48:33;12.20;99.90
51902;DHT22;37929;53.218;6.548;2023-05-17T15:51:00;12.20;99.90
51902;DHT22;37929;53.218;6.548;2023-05-17T15:53:28;12.30;99.90
51902;DHT22;37929;53.218;6.548;2023-05-17T15:55:54;12.30;99.90
51902;DHT22;37929;53.218;6.548;2023-05-17T15:58:21;12.40;99.90
51902;DHT22;37929;53.218;6.548;2023-05-17T16:00:47;12.50;99.90
51902;DHT22;37929;53.218;6.548;2023-05-17T16:03:14;12.40;99.90